sensor_id;sensor_type;location;lat;lon;timestamp;temperature;humidity
65826;DHT22;52586;-43.152;172.732;2023-03-14T00:00:35;21.00;48.90
65826;DHT22;52586;-43.152;172.732;2023-03-14T00:03:06;21.00;49.20
65826;DHT22;52586;-43.152;172.732;2023-03-14T00:05:36;21.10;49.20
65826;DHT22;52586;-43.152;172.732;2023-03-14T00:08:07;21.10;49.20
65826;DHT22;52586;-43.152;172.732;2023-03-14T00:10:38;21.10;49.30
65826;DHT22;52586;-43.152;172.732;2023-03-14T00:13:09;21.20;49.30
65826;DHT22;52586;-43.152;172.732;2023-03-14T00:15:41;21.20;49.30
65826;DHT22;52586;-43.152;172.732;2023-03-14T00:18:12;21.30;49.40
65826;DHT22;52586;-43.152;172.732;2023-03-14T00:20:43;21.30;49.40
65826;DHT22;52586;-43.152;172.732;2023-03-14T00:23:13;21.30;49.40
65826;DHT22;52586;-43.152;172.732;2023-03-14T00:25:44;21.40;49.50
65826;DHT22;52586;-43.152;172.732;2023-03-14T00:28:15;21.40;49.50
65826;DHT22;52586;-43.152;172.732;2023-03-14T00:30:47;21.40;49.50
65826;DHT22;52586;-43.152;172.732;2023-03-14T00:33:18;21.50;49.40
65826;DHT22;52586;-43.152;172.732;2023-03-14T00:35:55;21.50;49.30
65826;DHT22;52586;-43.152;172.732;2023-03-14T00:38:26;21.50;49.30
65826;DHT22;52586;-43.152;172.732;2023-03-14T00:40:57;21.60;49.30
65826;DHT22;52586;-43.152;172.732;2023-03-14T00:43:28;21.60;49.30
65826;DHT22;52586;-43.152;172.732;2023-03-14T00:46:01;21.60;49.30
65826;DHT22;52586;-43.152;172.732;2023-03-14T00:48:32;21.70;49.40
65826;DHT22;52586;-43.152;172.732;2023-03-14T00:51:02;21.70;49.40
65826;DHT22;52586;-43.152;172.732;2023-03-14T00:53:36;21.80;49.50
65826;DHT22;52586;-43.152;172.732;2023-03-14T00:56:09;21.80;49.50
65826;DHT22;52586;-43.152;172.732;2023-03-14T00:58:40;21.90;49.60
65826;DHT22;52586;-43.152;172.732;2023-03-14T01:01:15;21.90;49.60
65826;DHT22;52586;-43.152;172.732;2023-03-14T01:03:46;21.90;49.60
65826;DHT22;52586;-43.152;172.732;2023-03-14T01:06:18;22.00;49.50
65826;DHT22;52586;-43.152;172.732;2023-03-14T01:08:49;22.00;49.40
65826;DHT22;52586;-43.152;172.732;2023-03-14T01:11:20;22.00;49.30
65826;DHT22;52586;-43.152;172.732;2023-03-14T01:13:51;22.00;49.30
65826;DHT22;52586;-43.152;172.732;2023-03-14T01:16:25;22.10;49.30
65826;DHT22;52586;-43.152;172.732;2023-03-14T01:18:56;22.10;49.30
65826;DHT22;52586;-43.152;172.732;2023-03-14T01:21:28;22.10;49.20
65826;DHT22;52586;-43.152;172.732;2023-03-14T01:24:00;22.20;49.20
65826;DHT22;52586;-43.152;172.732;2023-03-14T01:26:32;22.20;49.80
65826;DHT22;52586;-43.152;172.732;2023-03-14T01:29:04;22.20;49.20
65826;DHT22;52586;-43.152;172.732;2023-03-14T01:31:36;22.30;49.20
65826;DHT22;52586;-43.152;172.732;2023-03-14T01:34:07;22.30;49.20
65826;DHT22;52586;-43.152;172.732;2023-03-14T01:36:38;22.30;49.20
65826;DHT22;52586;-43.152;172.732;2023-03-14T01:39:08;22.30;49.20
65826;DHT22;52586;-43.152;172.732;2023-03-14T01:41:39;22.40;49.30
65826;DHT22;52586;-43.152;172.732;2023-03-14T01:44:11;22.40;49.20
65826;DHT22;52586;-43.152;172.732;2023-03-14T01:46:45;22.40;49.30
65826;DHT22;52586;-43.152;172.732;2023-03-14T01:49:27;22.40;49.30
65826;DHT22;52586;-43.152;172.732;2023-03-14T01:52:02;22.50;49.20
65826;DHT22;52586;-43.152;172.732;2023-03-14T01:54:36;22.50;49.10
65826;DHT22;52586;-43.152;172.732;2023-03-14T01:57:11;22.50;49.00
65826;DHT22;52586;-43.152;172.732;2023-03-14T01:59:45;22.60;49.10
65826;DHT22;52586;-43.152;172.732;2023-03-14T02:02:18;22.60;49.00
65826;DHT22;52586;-43.152;172.732;2023-03-14T02:04:52;22.60;49.00
65826;DHT22;52586;-43.152;172.732;2023-03-14T02:07:29;22.70;49.00
65826;DHT22;52586;-43.152;172.732;2023-03-14T02:10:03;22.70;49.00
65826;DHT22;52586;-43.152;172.732;2023-03-14T02:12:35;22.70;48.90
65826;DHT22;52586;-43.152;172.732;2023-03-14T02:15:07;22.80;49.00
65826;DHT22;52586;-43.152;172.732;2023-03-14T02:17:41;22.80;48.90
65826;DHT22;52586;-43.152;172.732;2023-03-14T02:20:23;22.80;48.80
65826;DHT22;52586;-43.152;172.732;2023-03-14T02:22:56;22.80;48.80
65826;DHT22;52586;-43.152;172.732;2023-03-14T02:25:35;22.90;48.70
65826;DHT22;52586;-43.152;172.732;2023-03-14T02:28:11;22.90;48.70
65826;DHT22;52586;-43.152;172.732;2023-03-14T02:30:42;22.90;48.70
65826;DHT22;52586;-43.152;172.732;2023-03-14T02:33:15;23.00;48.70
65826;DHT22;52586;-43.152;172.732;2023-03-14T02:35:48;23.00;48.60
65826;DHT22;52586;-43.152;172.732;2023-03-14T02:38:24;23.00;48.50
65826;DHT22;52586;-43.152;172.732;2023-03-14T02:40:55;23.00;48.50
65826;DHT22;52586;-43.152;172.732;2023-03-14T02:43:27;23.10;48.40
65826;DHT22;52586;-43.152;172.732;2023-03-14T02:45:58;23.10;48.40
65826;DHT22;52586;-43.152;172.732;2023-03-14T02:48:31;23.10;48.40
65826;DHT22;52586;-43.152;172.732;2023-03-14T02:51:04;23.20;48.40
65826;DHT22;52586;-43.152;172.732;2023-03-14T02:53:36;23.20;48.40
65826;DHT22;52586;-43.152;172.732;2023-03-14T02:56:09;23.20;48.30
65826;DHT22;52586;-43.152;172.732;2023-03-14T02:58:42;23.30;48.40
65826;DHT22;52586;-43.152;172.732;2023-03-14T03:01:12;23.30;48.30
65826;DHT22;52586;-43.152;172.732;2023-03-14T03:03:43;23.30;48.30
65826;DHT22;52586;-43.152;172.732;2023-03-14T03:06:14;23.40;48.30
65826;DHT22;52586;-43.152;172.732;2023-03-14T03:08:45;23.40;48.30
65826;DHT22;52586;-43.152;172.732;2023-03-14T03:11:16;23.40;48.20
65826;DHT22;52586;-43.152;172.732;2023-03-14T03:13:48;23.50;48.10
65826;DHT22;52586;-43.152;172.732;2023-03-14T03:16:19;23.50;48.10
65826;DHT22;52586;-43.152;172.732;2023-03-14T03:18:49;23.50;48.00
65826;DHT22;52586;-43.152;172.732;2023-03-14T03:21:20;23.50;48.00
65826;DHT22;52586;-43.152;172.732;2023-03-14T03:23:52;23.50;47.90
65826;DHT22;52586;-43.152;172.732;2023-03-14T03:26:23;23.60;47.90
65826;DHT22;52586;-43.152;172.732;2023-03-14T03:28:55;23.70;48.00
65826;DHT22;52586;-43.152;172.732;2023-03-14T03:31:26;23.70;47.90
65826;DHT22;52586;-43.152;172.732;2023-03-14T03:33:57;23.70;47.80
65826;DHT22;52586;-43.152;172.732;2023-03-14T03:36:28;23.80;47.80
65826;DHT22;52586;-43.152;172.732;2023-03-14T03:38:58;23.80;47.80
65826;DHT22;52586;-43.152;172.732;2023-03-14T03:41:29;23.80;47.60
65826;DHT22;52586;-43.152;172.732;2023-03-14T03:44:02;23.80;47.60
65826;DHT22;52586;-43.152;172.732;2023-03-14T03:46:33;23.80;47.60
65826;DHT22;52586;-43.152;172.732;2023-03-14T03:49:04;23.90;47.60
65826;DHT22;52586;-43.152;172.732;2023-03-14T03:51:34;23.90;47.60
65826;DHT22;52586;-43.152;172.732;2023-03-14T03:54:05;23.90;47.50
65826;DHT22;52586;-43.152;172.732;2023-03-14T03:56:36;24.00;47.60
65826;DHT22;52586;-43.152;172.732;2023-03-14T03:59:08;24.00;47.50
65826;DHT22;52586;-43.152;172.732;2023-03-14T04:01:39;24.00;47.50
65826;DHT22;52586;-43.152;172.732;2023-03-14T04:04:10;24.10;47.40
65826;DHT22;52586;-43.152;172.732;2023-03-14T04:06:40;24.10;47.40
65826;DHT22;52586;-43.152;172.732;2023-03-14T04:09:12;24.10;47.30
65826;DHT22;52586;-43.152;172.732;2023-03-14T04:11:42;24.10;47.20
65826;DHT22;52586;-43.152;172.732;2023-03-14T04:14:15;24.20;47.20
65826;DHT22;52586;-43.152;172.732;2023-03-14T04:16:46;24.20;47.10
65826;DHT22;52586;-43.152;172.732;2023-03-14T04:19:16;24.20;47.10
65826;DHT22;52586;-43.152;172.732;2023-03-14T04:21:47;24.20;47.00
65826;DHT22;52586;-43.152;172.732;2023-03-14T04:24:18;24.30;47.00
65826;DHT22;52586;-43.152;172.732;2023-03-14T04:26:48;24.30;47.00
65826;DHT22;52586;-43.152;172.732;2023-03-14T04:29:21;24.30;46.90
65826;DHT22;52586;-43.152;172.732;2023-03-14T04:31:52;24.30;46.90
65826;DHT22;52586;-43.152;172.732;2023-03-14T04:34:22;24.30;46.90
65826;DHT22;52586;-43.152;172.732;2023-03-14T04:36:53;24.40;46.90
65826;DHT22;52586;-43.152;172.732;2023-03-14T04:39:24;24.40;46.90
65826;DHT22;52586;-43.152;172.732;2023-03-14T04:41:54;24.50;46.90
65826;DHT22;52586;-43.152;172.732;2023-03-14T04:44:27;24.50;46.90
65826;DHT22;52586;-43.152;172.732;2023-03-14T04:46:58;24.50;46.80
65826;DHT22;52586;-43.152;172.732;2023-03-14T04:49:28;24.50;46.80
65826;DHT22;52586;-43.152;172.732;2023-03-14T04:51:59;24.50;46.70
65826;DHT22;52586;-43.152;172.732;2023-03-14T04:54:30;24.60;46.70
65826;DHT22;52586;-43.152;172.732;2023-03-14T04:57:00;24.60;46.60
65826;DHT22;52586;-43.152;172.732;2023-03-14T04:59:33;24.60;46.50
65826;DHT22;52586;-43.152;172.732;2023-03-14T05:02:03;24.60;46.50
65826;DHT22;52586;-43.152;172.732;2023-03-14T05:04:34;24.70;46.60
65826;DHT22;52586;-43.152;172.732;2023-03-14T05:07:05;24.70;46.40
65826;DHT22;52586;-43.152;172.732;2023-03-14T05:09:35;24.70;46.40
65826;DHT22;52586;-43.152;172.732;2023-03-14T05:12:06;24.70;46.40
65826;DHT22;52586;-43.152;172.732;2023-03-14T05:14:39;24.70;46.40
65826;DHT22;52586;-43.152;172.732;2023-03-14T05:17:09;24.80;46.30
65826;DHT22;52586;-43.152;172.732;2023-03-14T05:19:48;24.80;46.30
65826;DHT22;52586;-43.152;172.732;2023-03-14T05:22:19;24.80;46.30
65826;DHT22;52586;-43.152;172.732;2023-03-14T05:24:50;24.80;46.20
65826;DHT22;52586;-43.152;172.732;2023-03-14T05:27:21;24.90;46.30
65826;DHT22;52586;-43.152;172.732;2023-03-14T05:29:53;24.90;46.20
65826;DHT22;52586;-43.152;172.732;2023-03-14T05:32:24;24.90;46.10
65826;DHT22;52586;-43.152;172.732;2023-03-14T05:34:55;24.90;46.10
65826;DHT22;52586;-43.152;172.732;2023-03-14T05:37:27;25.00;46.00
65826;DHT22;52586;-43.152;172.732;2023-03-14T05:39:58;25.00;45.90
65826;DHT22;52586;-43.152;172.732;2023-03-14T05:42:29;25.00;46.00
65826;DHT22;52586;-43.152;172.732;2023-03-14T05:45:01;25.00;45.90
65826;DHT22;52586;-43.152;172.732;2023-03-14T05:47:34;25.00;45.90
65826;DHT22;52586;-43.152;172.732;2023-03-14T05:50:06;25.10;45.80
65826;DHT22;52586;-43.152;172.732;2023-03-14T05:52:36;25.10;45.90
65826;DHT22;52586;-43.152;172.732;2023-03-14T05:55:07;25.10;45.90
65826;DHT22;52586;-43.152;172.732;2023-03-14T05:57:38;25.10;46.00
65826;DHT22;52586;-43.152;172.732;2023-03-14T06:00:12;25.10;46.00
65826;DHT22;52586;-43.152;172.732;2023-03-14T06:02:43;25.10;45.90
65826;DHT22;52586;-43.152;172.732;2023-03-14T06:05:13;25.10;45.90
65826;DHT22;52586;-43.152;172.732;2023-03-14T06:07:44;25.10;45.70
65826;DHT22;52586;-43.152;172.732;2023-03-14T06:10:15;25.10;45.70
65826;DHT22;52586;-43.152;172.732;2023-03-14T06:12:45;25.10;45.80
65826;DHT22;52586;-43.152;172.732;2023-03-14T06:15:18;25.10;45.90
65826;DHT22;52586;-43.152;172.732;2023-03-14T06:17:49;25.10;46.00
65826;DHT22;52586;-43.152;172.732;2023-03-14T06:20:19;25.10;46.00
65826;DHT22;52586;-43.152;172.732;2023-03-14T06:22:50;25.20;46.10
65826;DHT22;52586;-43.152;172.732;2023-03-14T06:25:21;25.20;46.10
65826;DHT22;52586;-43.152;172.732;2023-03-14T06:27:52;25.10;46.00
65826;DHT22;52586;-43.152;172.732;2023-03-14T06:30:24;25.10;46.00
65826;DHT22;52586;-43.152;172.732;2023-03-14T06:32:55;25.10;46.00
65826;DHT22;52586;-43.152;172.732;2023-03-14T06:35:26;25.10;46.00
65826;DHT22;52586;-43.152;172.732;2023-03-14T06:37:56;25.10;46.00
65826;DHT22;52586;-43.152;172.732;2023-03-14T06:40:27;25.10;46.00
65826;DHT22;52586;-43.152;172.732;2023-03-14T06:42:58;25.10;46.10
65826;DHT22;52586;-43.152;172.732;2023-03-14T06:45:30;25.10;46.00
65826;DHT22;52586;-43.152;172.732;2023-03-14T06:48:01;25.10;46.00
65826;DHT22;52586;-43.152;172.732;2023-03-14T06:50:32;25.10;46.10
65826;DHT22;52586;-43.152;172.732;2023-03-14T06:53:02;25.10;46.00
65826;DHT22;52586;-43.152;172.732;2023-03-14T06:55:33;25.10;46.00
65826;DHT22;52586;-43.152;172.732;2023-03-14T06:58:04;25.10;45.90
65826;DHT22;52586;-43.152;172.732;2023-03-14T07:00:37;25.10;45.80
65826;DHT22;52586;-43.152;172.732;2023-03-14T07:03:08;25.10;45.80
65826;DHT22;52586;-43.152;172.732;2023-03-14T07:05:39;25.10;45.80
65826;DHT22;52586;-43.152;172.732;2023-03-14T07:08:10;25.00;45.70
65826;DHT22;52586;-43.152;172.732;2023-03-14T07:10:41;25.00;45.70
65826;DHT22;52586;-43.152;172.732;2023-03-14T07:13:11;25.00;45.60
65826;DHT22;52586;-43.152;172.732;2023-03-14T07:15:44;25.00;45.70
65826;DHT22;52586;-43.152;172.732;2023-03-14T07:18:15;25.00;45.70
65826;DHT22;52586;-43.152;172.732;2023-03-14T07:20:46;24.90;45.70
65826;DHT22;52586;-43.152;172.732;2023-03-14T07:23:17;24.90;45.70
65826;DHT22;52586;-43.152;172.732;2023-03-14T07:25:48;24.90;45.80
65826;DHT22;52586;-43.152;172.732;2023-03-14T07:28:18;24.90;45.80
65826;DHT22;52586;-43.152;172.732;2023-03-14T07:30:52;24.90;45.80
65826;DHT22;52586;-43.152;172.732;2023-03-14T07:33:23;24.90;45.70
65826;DHT22;52586;-43.152;172.732;2023-03-14T07:35:54;24.90;45.80
65826;DHT22;52586;-43.152;172.732;2023-03-14T07:38:25;24.80;45.70
65826;DHT22;52586;-43.152;172.732;2023-03-14T07:41:00;24.80;45.60
65826;DHT22;52586;-43.152;172.732;2023-03-14T07:43:31;24.80;45.70
65826;DHT22;52586;-43.152;172.732;2023-03-14T07:46:03;24.80;45.70
65826;DHT22;52586;-43.152;172.732;2023-03-14T07:48:34;24.70;45.60
65826;DHT22;52586;-43.152;172.732;2023-03-14T07:51:05;24.70;45.60
65826;DHT22;52586;-43.152;172.732;2023-03-14T07:53:36;24.70;45.70
65826;DHT22;52586;-43.152;172.732;2023-03-14T07:56:07;24.70;45.70
65826;DHT22;52586;-43.152;172.732;2023-03-14T07:58:38;24.70;45.70
65826;DHT22;52586;-43.152;172.732;2023-03-14T08:01:10;24.70;45.70
65826;DHT22;52586;-43.152;172.732;2023-03-14T08:03:41;24.60;45.70
65826;DHT22;52586;-43.152;172.732;2023-03-14T08:06:12;24.60;45.70
65826;DHT22;52586;-43.152;172.732;2023-03-14T08:08:42;24.60;45.70
65826;DHT22;52586;-43.152;172.732;2023-03-14T08:11:13;24.60;45.70
65826;DHT22;52586;-43.152;172.732;2023-03-14T08:13:44;24.50;45.60
65826;DHT22;52586;-43.152;172.732;2023-03-14T08:16:19;24.50;45.60
65826;DHT22;52586;-43.152;172.732;2023-03-14T08:18:50;24.50;45.60
65826;DHT22;52586;-43.152;172.732;2023-03-14T08:21:20;24.50;45.60
65826;DHT22;52586;-43.152;172.732;2023-03-14T08:23:51;24.50;45.60
65826;DHT22;52586;-43.152;172.732;2023-03-14T08:26:22;24.50;45.60
65826;DHT22;52586;-43.152;172.732;2023-03-14T08:28:52;24.40;45.60
65826;DHT22;52586;-43.152;172.732;2023-03-14T08:31:25;24.40;45.60
65826;DHT22;52586;-43.152;172.732;2023-03-14T08:33:57;24.40;45.60
65826;DHT22;52586;-43.152;172.732;2023-03-14T08:36:28;24.30;45.60
65826;DHT22;52586;-43.152;172.732;2023-03-14T08:38:59;24.30;45.60
65826;DHT22;52586;-43.152;172.732;2023-03-14T08:41:31;24.30;45.60
65826;DHT22;52586;-43.152;172.732;2023-03-14T08:44:07;24.30;45.60
65826;DHT22;52586;-43.152;172.732;2023-03-14T08:46:41;24.30;45.60
65826;DHT22;52586;-43.152;172.732;2023-03-14T08:49:11;24.30;45.70
65826;DHT22;52586;-43.152;172.732;2023-03-14T08:51:42;24.20;45.60
65826;DHT22;52586;-43.152;172.732;2023-03-14T08:54:13;24.20;45.60
65826;DHT22;52586;-43.152;172.732;2023-03-14T08:56:43;24.20;45.70
65826;DHT22;52586;-43.152;172.732;2023-03-14T08:59:14;24.20;45.70
65826;DHT22;52586;-43.152;172.732;2023-03-14T09:01:47;24.20;45.70
65826;DHT22;52586;-43.152;172.732;2023-03-14T09:04:18;24.10;45.70
65826;DHT22;52586;-43.152;172.732;2023-03-14T09:06:49;24.10;45.60
65826;DHT22;52586;-43.152;172.732;2023-03-14T09:09:20;24.10;45.60
65826;DHT22;52586;-43.152;172.732;2023-03-14T09:11:51;24.10;45.70
65826;DHT22;52586;-43.152;172.732;2023-03-14T09:14:22;24.00;45.70
65826;DHT22;52586;-43.152;172.732;2023-03-14T09:16:54;24.00;45.70
65826;DHT22;52586;-43.152;172.732;2023-03-14T09:19:25;24.00;45.70
65826;DHT22;52586;-43.152;172.732;2023-03-14T09:21:56;24.00;45.80
65826;DHT22;52586;-43.152;172.732;2023-03-14T09:24:26;24.00;45.80
65826;DHT22;52586;-43.152;172.732;2023-03-14T09:26:57;24.00;45.80
65826;DHT22;52586;-43.152;172.732;2023-03-14T09:29:28;23.90;45.80
65826;DHT22;52586;-43.152;172.732;2023-03-14T09:32:01;23.90;45.80
65826;DHT22;52586;-43.152;172.732;2023-03-14T09:34:32;23.90;45.80
65826;DHT22;52586;-43.152;172.732;2023-03-14T09:37:02;23.90;45.80
65826;DHT22;52586;-43.152;172.732;2023-03-14T09:39:33;23.80;45.60
65826;DHT22;52586;-43.152;172.732;2023-03-14T09:42:06;23.80;45.60
65826;DHT22;52586;-43.152;172.732;2023-03-14T09:44:42;23.80;45.70
65826;DHT22;52586;-43.152;172.732;2023-03-14T09:47:18;23.80;45.70
65826;DHT22;52586;-43.152;172.732;2023-03-14T09:49:49;23.80;45.70
65826;DHT22;52586;-43.152;172.732;2023-03-14T09:52:24;23.70;45.70
65826;DHT22;52586;-43.152;172.732;2023-03-14T09:54:59;23.70;45.70
65826;DHT22;52586;-43.152;172.732;2023-03-14T09:57:32;23.70;45.80
65826;DHT22;52586;-43.152;172.732;2023-03-14T10:00:10;23.70;45.80
65826;DHT22;52586;-43.152;172.732;2023-03-14T10:02:46;23.70;45.80
65826;DHT22;52586;-43.152;172.732;2023-03-14T10:05:21;23.60;45.80
65826;DHT22;52586;-43.152;172.732;2023-03-14T10:07:52;23.60;45.80
65826;DHT22;52586;-43.152;172.732;2023-03-14T10:10:24;23.60;45.80
65826;DHT22;52586;-43.152;172.732;2023-03-14T10:12:59;23.60;45.70
65826;DHT22;52586;-43.152;172.732;2023-03-14T10:15:33;23.50;45.80
65826;DHT22;52586;-43.152;172.732;2023-03-14T10:18:10;23.50;45.80
65826;DHT22;52586;-43.152;172.732;2023-03-14T10:20:42;23.50;45.70
65826;DHT22;52586;-43.152;172.732;2023-03-14T10:23:28;23.50;45.70
65826;DHT22;52586;-43.152;172.732;2023-03-14T10:26:12;23.50;45.80
65826;DHT22;52586;-43.152;172.732;2023-03-14T10:28:45;23.50;45.80
65826;DHT22;52586;-43.152;172.732;2023-03-14T10:31:16;23.40;45.70
65826;DHT22;52586;-43.152;172.732;2023-03-14T10:34:01;23.40;45.70
65826;DHT22;52586;-43.152;172.732;2023-03-14T10:36:33;23.40;45.80
65826;DHT22;52586;-43.152;172.732;2023-03-14T10:39:24;23.40;45.80
65826;DHT22;52586;-43.152;172.732;2023-03-14T10:42:02;23.30;45.80
65826;DHT22;52586;-43.152;172.732;2023-03-14T10:44:35;23.30;45.80
65826;DHT22;52586;-43.152;172.732;2023-03-14T10:47:12;23.30;45.90
65826;DHT22;52586;-43.152;172.732;2023-03-14T10:49:46;23.30;45.80
65826;DHT22;52586;-43.152;172.732;2023-03-14T10:52:21;23.30;45.90
65826;DHT22;52586;-43.152;172.732;2023-03-14T10:54:56;23.30;45.90
65826;DHT22;52586;-43.152;172.732;2023-03-14T10:57:27;23.20;45.90
65826;DHT22;52586;-43.152;172.732;2023-03-14T10:59:58;23.20;45.90
65826;DHT22;52586;-43.152;172.732;2023-03-14T11:02:46;23.20;45.90
65826;DHT22;52586;-43.152;172.732;2023-03-14T11:05:28;23.20;45.90
65826;DHT22;52586;-43.152;172.732;2023-03-14T11:08:06;23.20;45.90
65826;DHT22;52586;-43.152;172.732;2023-03-14T11:10:39;23.20;45.90
65826;DHT22;52586;-43.152;172.732;2023-03-14T11:13:19;23.10;45.90
65826;DHT22;52586;-43.152;172.732;2023-03-14T11:16:01;23.10;45.90
65826;DHT22;52586;-43.152;172.732;2023-03-14T11:18:58;23.00;45.90
65826;DHT22;52586;-43.152;172.732;2023-03-14T11:21:38;23.00;46.00
65826;DHT22;52586;-43.152;172.732;2023-03-14T11:24:23;23.00;46.00
65826;DHT22;52586;-43.152;172.732;2023-03-14T11:26:59;23.00;46.00
65826;DHT22;52586;-43.152;172.732;2023-03-14T11:29:39;23.00;46.00
65826;DHT22;52586;-43.152;172.732;2023-03-14T11:32:17;23.00;46.00
65826;DHT22;52586;-43.152;172.732;2023-03-14T11:34:52;22.90;46.00
65826;DHT22;52586;-43.152;172.732;2023-03-14T11:37:28;22.90;46.00
65826;DHT22;52586;-43.152;172.732;2023-03-14T11:40:08;22.90;46.10
65826;DHT22;52586;-43.152;172.732;2023-03-14T11:42:44;22.90;46.00
65826;DHT22;52586;-43.152;172.732;2023-03-14T11:45:18;22.90;46.10
65826;DHT22;52586;-43.152;172.732;2023-03-14T11:48:05;22.90;46.60
65826;DHT22;52586;-43.152;172.732;2023-03-14T11:50:38;22.80;46.10
65826;DHT22;52586;-43.152;172.732;2023-03-14T11:53:16;22.80;46.10
65826;DHT22;52586;-43.152;172.732;2023-03-14T11:55:48;22.80;46.10
65826;DHT22;52586;-43.152;172.732;2023-03-14T11:58:22;22.80;46.20
65826;DHT22;52586;-43.152;172.732;2023-03-14T12:00:55;22.80;46.20
65826;DHT22;52586;-43.152;172.732;2023-03-14T12:03:31;22.70;46.10
65826;DHT22;52586;-43.152;172.732;2023-03-14T12:06:13;22.70;46.10
65826;DHT22;52586;-43.152;172.732;2023-03-14T12:08:52;22.70;46.10
65826;DHT22;52586;-43.152;172.732;2023-03-14T12:11:35;22.70;46.10
65826;DHT22;52586;-43.152;172.732;2023-03-14T12:14:20;22.60;46.10
65826;DHT22;52586;-43.152;172.732;2023-03-14T12:16:55;22.60;46.10
65826;DHT22;52586;-43.152;172.732;2023-03-14T12:19:35;22.60;46.10
65826;DHT22;52586;-43.152;172.732;2023-03-14T12:22:30;22.60;46.20
65826;DHT22;52586;-43.152;172.732;2023-03-14T12:25:12;22.60;46.20
65826;DHT22;52586;-43.152;172.732;2023-03-14T12:28:19;22.60;46.20
65826;DHT22;52586;-43.152;172.732;2023-03-14T12:30:50;22.50;46.20
65826;DHT22;52586;-43.152;172.732;2023-03-14T12:33:41;22.50;46.20
65826;DHT22;52586;-43.152;172.732;2023-03-14T12:39:22;22.40;46.20
65826;DHT22;52586;-43.152;172.732;2023-03-14T12:42:03;22.40;46.20
65826;DHT22;52586;-43.152;172.732;2023-03-14T12:44:43;22.40;46.30
65826;DHT22;52586;-43.152;172.732;2023-03-14T12:47:49;22.40;46.30
65826;DHT22;52586;-43.152;172.732;2023-03-14T12:50:25;22.40;46.30
65826;DHT22;52586;-43.152;172.732;2023-03-14T12:56:26;22.40;46.40
65826;DHT22;52586;-43.152;172.732;2023-03-14T12:59:21;22.30;46.30
65826;DHT22;52586;-43.152;172.732;2023-03-14T13:01:56;22.30;46.30
65826;DHT22;52586;-43.152;172.732;2023-03-14T13:04:32;22.30;46.40
65826;DHT22;52586;-43.152;172.732;2023-03-14T13:07:04;22.30;46.40
65826;DHT22;52586;-43.152;172.732;2023-03-14T13:10:02;22.20;46.40
65826;DHT22;52586;-43.152;172.732;2023-03-14T13:12:39;22.20;46.50
65826;DHT22;52586;-43.152;172.732;2023-03-14T13:15:21;22.20;46.50
65826;DHT22;52586;-43.152;172.732;2023-03-14T13:17:54;22.20;46.50
65826;DHT22;52586;-43.152;172.732;2023-03-14T13:20:30;22.10;46.50
65826;DHT22;52586;-43.152;172.732;2023-03-14T13:23:01;22.10;46.50
65826;DHT22;52586;-43.152;172.732;2023-03-14T13:25:34;22.10;46.50
65826;DHT22;52586;-43.152;172.732;2023-03-14T13:28:05;22.10;46.50
65826;DHT22;52586;-43.152;172.732;2023-03-14T13:30:44;22.10;46.50
65826;DHT22;52586;-43.152;172.732;2023-03-14T13:33:17;22.10;46.50
65826;DHT22;52586;-43.152;172.732;2023-03-14T13:35:56;22.00;46.50
65826;DHT22;52586;-43.152;172.732;2023-03-14T13:38:27;22.10;46.60
65826;DHT22;52586;-43.152;172.732;2023-03-14T13:40:59;22.00;46.50
65826;DHT22;52586;-43.152;172.732;2023-03-14T13:43:31;22.00;46.60
65826;DHT22;52586;-43.152;172.732;2023-03-14T13:46:06;22.00;46.60
65826;DHT22;52586;-43.152;172.732;2023-03-14T13:48:42;22.00;46.70
65826;DHT22;52586;-43.152;172.732;2023-03-14T13:51:15;22.00;46.70
65826;DHT22;52586;-43.152;172.732;2023-03-14T13:53:47;21.90;46.70
65826;DHT22;52586;-43.152;172.732;2023-03-14T13:56:19;21.90;46.70
65826;DHT22;52586;-43.152;172.732;2023-03-14T13:58:51;21.90;46.70
65826;DHT22;52586;-43.152;172.732;2023-03-14T14:01:25;21.90;46.70
65826;DHT22;52586;-43.152;172.732;2023-03-14T14:03:58;21.90;46.70
65826;DHT22;52586;-43.152;172.732;2023-03-14T14:06:30;21.90;46.70
65826;DHT22;52586;-43.152;172.732;2023-03-14T14:09:02;21.90;46.80
65826;DHT22;52586;-43.152;172.732;2023-03-14T14:11:43;21.80;46.70
65826;DHT22;52586;-43.152;172.732;2023-03-14T14:14:17;21.80;46.70
65826;DHT22;52586;-43.152;172.732;2023-03-14T14:16:53;21.80;46.70
65826;DHT22;52586;-43.152;172.732;2023-03-14T14:19:24;21.80;46.80
65826;DHT22;52586;-43.152;172.732;2023-03-14T14:21:57;21.80;46.80
65826;DHT22;52586;-43.152;172.732;2023-03-14T14:24:30;21.70;46.80
65826;DHT22;52586;-43.152;172.732;2023-03-14T14:27:07;21.70;46.80
65826;DHT22;52586;-43.152;172.732;2023-03-14T14:29:38;21.70;46.80
65826;DHT22;52586;-43.152;172.732;2023-03-14T14:32:14;21.70;46.80
65826;DHT22;52586;-43.152;172.732;2023-03-14T14:34:47;21.70;46.80
65826;DHT22;52586;-43.152;172.732;2023-03-14T14:37:26;21.70;46.90
65826;DHT22;52586;-43.152;172.732;2023-03-14T14:39:59;21.70;46.80
65826;DHT22;52586;-43.152;172.732;2023-03-14T14:42:31;21.60;46.80
65826;DHT22;52586;-43.152;172.732;2023-03-14T14:45:03;21.60;46.90
65826;DHT22;52586;-43.152;172.732;2023-03-14T14:47:49;21.60;46.90
65826;DHT22;52586;-43.152;172.732;2023-03-14T14:50:29;21.60;46.90
65826;DHT22;52586;-43.152;172.732;2023-03-14T14:53:00;21.60;46.90
65826;DHT22;52586;-43.152;172.732;2023-03-14T14:55:33;21.60;46.90
65826;DHT22;52586;-43.152;172.732;2023-03-14T14:58:18;21.50;46.80
65826;DHT22;52586;-43.152;172.732;2023-03-14T15:00:54;21.50;46.90
65826;DHT22;52586;-43.152;172.732;2023-03-14T15:03:30;21.50;46.90
65826;DHT22;52586;-43.152;172.732;2023-03-14T15:06:02;21.50;46.90
65826;DHT22;52586;-43.152;172.732;2023-03-14T15:08:32;21.50;46.90
65826;DHT22;52586;-43.152;172.732;2023-03-14T15:11:03;21.50;46.90
65826;DHT22;52586;-43.152;172.732;2023-03-14T15:13:34;21.40;47.00
65826;DHT22;52586;-43.152;172.732;2023-03-14T15:16:10;21.40;47.00
65826;DHT22;52586;-43.152;172.732;2023-03-14T15:18:43;21.40;47.00
65826;DHT22;52586;-43.152;172.732;2023-03-14T15:21:14;21.40;47.00
65826;DHT22;52586;-43.152;172.732;2023-03-14T15:23:45;21.40;47.00
65826;DHT22;52586;-43.152;172.732;2023-03-14T15:26:18;21.40;47.10
65826;DHT22;52586;-43.152;172.732;2023-03-14T15:28:49;21.40;47.10
65826;DHT22;52586;-43.152;172.732;2023-03-14T15:31:20;21.30;47.00